createdAt,value
2023-10-10T00:02:21.025Z,91.30
2023-10-10T00:04:49.498Z,91.17
2023-10-10T00:07:20.572Z,91.44
2023-10-10T00:09:48.110Z,91.67
2023-10-10T00:12:20.447Z,91.79
2023-10-10T00:14:52.144Z,92.14
2023-10-10T00:17:22.304Z,91.83
2023-10-10T00:19:53.811Z,92.28
2023-10-10T00:22:28.524Z,92.34
2023-10-10T00:24:56.029Z,92.72
2023-10-10T00:27:25.335Z,93.28
2023-10-10T00:29:55.674Z,93.51
2023-10-10T00:32:26.322Z,92.96
2023-10-10T00:34:54.017Z,93.26
2023-10-10T00:37:23.220Z,93.60
2023-10-10T00:39:53.648Z,93.59
2023-10-10T00:42:23.398Z,94.05
2023-10-10T00:44:51.297Z,94.09
2023-10-10T00:47:23.265Z,93.97
2023-10-10T00:49:51.785Z,94.31
2023-10-10T00:52:19.950Z,94.04
2023-10-10T00:54:48.446Z,94.32
2023-10-10T00:57:17.629Z,94.34
2023-10-10T00:59:46.447Z,94.76
2023-10-10T01:02:18.675Z,95.03
2023-10-10T01:04:49.672Z,94.71
2023-10-10T01:07:20.599Z,95.09
2023-10-10T01:09:52.220Z,95.05
2023-10-10T01:12:19.733Z,95.37
2023-10-10T01:14:48.685Z,95.62
2023-10-10T01:17:16.159Z,95.31
2023-10-10T01:19:51.732Z,95.85
2023-10-10T01:22:22.130Z,95.70
2023-10-10T01:24:55.092Z,95.85
2023-10-10T01:27:24.068Z,95.83
2023-10-10T01:30:13.125Z,95.61
2023-10-10T01:32:41.270Z,95.80
2023-10-10T01:35:18.232Z,95.89
2023-10-10T01:37:56.544Z,95.93
2023-10-10T01:40:25.772Z,95.75
2023-10-10T01:42:55.712Z,95.87
2023-10-10T01:45:25.245Z,96.01
2023-10-10T01:47:56.029Z,96.29
2023-10-10T01:50:24.527Z,96.80
2023-10-10T01:52:51.907Z,96.79
2023-10-10T01:55:19.738Z,96.95
2023-10-10T01:57:47.149Z,97.01
2023-10-10T02:00:18.169Z,97.05
2023-10-10T02:02:45.757Z,96.73
2023-10-10T02:05:18.034Z,96.86
2023-10-10T02:07:50.643Z,97.10
2023-10-10T02:10:20.559Z,97.16
2023-10-10T02:12:48.141Z,97.22
2023-10-10T02:15:20.525Z,97.23
2023-10-10T02:17:53.469Z,97.33
2023-10-10T02:20:35.712Z,97.24
2023-10-10T02:23:03.843Z,97.25
2023-10-10T02:25:34.340Z,97.57
2023-10-10T02:28:05.571Z,97.66
2023-10-10T02:30:36.214Z,97.42
2023-10-10T02:33:14.706Z,97.51
2023-10-10T02:35:56.346Z,97.61
2023-10-10T02:38:33.798Z,97.89
2023-10-10T02:41:09.889Z,97.85
2023-10-10T02:43:47.607Z,97.71
2023-10-10T02:46:19.585Z,97.64
2023-10-10T02:48:47.121Z,97.60
2023-10-10T02:51:17.631Z,97.44
2023-10-10T02:53:48.378Z,97.70
2023-10-10T02:56:20.378Z,97.89
2023-10-10T02:58:51.467Z,97.29
2023-10-10T03:01:22.010Z,96.78
2023-10-10T03:03:49.741Z,95.86
2023-10-10T03:06:18.351Z,95.98
2023-10-10T03:08:53.405Z,96.10
2023-10-10T03:11:23.731Z,96.09
2023-10-10T03:13:59.463Z,96.25
2023-10-10T03:16:27.189Z,95.71
2023-10-10T03:18:57.591Z,95.71
2023-10-10T03:21:27.930Z,96.18
2023-10-10T03:23:57.980Z,95.94
2023-10-10T03:26:28.762Z,95.63
2023-10-10T03:29:05.383Z,95.88
2023-10-10T03:31:40.355Z,95.73
2023-10-10T03:34:10.795Z,96.16
2023-10-10T03:36:45.353Z,96.08
2023-10-10T03:39:19.332Z,96.14
2023-10-10T03:41:49.650Z,95.62
2023-10-10T03:44:20.432Z,95.41
2023-10-10T03:46:51.270Z,95.40
2023-10-10T03:49:21.801Z,95.51
2023-10-10T03:51:52.405Z,95.52
2023-10-10T03:54:22.830Z,95.23
2023-10-10T03:56:53.199Z,95.38
2023-10-10T03:59:23.790Z,95.38
2023-10-10T04:01:55.147Z,95.40
2023-10-10T04:04:25.632Z,95.49
2023-10-10T04:06:56.223Z,95.26
2023-10-10T04:09:26.711Z,95.42
2023-10-10T04:11:57.378Z,95.55
2023-10-10T04:14:27.846Z,95.82
2023-10-10T04:16:58.242Z,96.00
2023-10-10T04:19:28.763Z,95.71
2023-10-10T04:21:59.313Z,95.85
2023-10-10T04:24:29.712Z,96.21
2023-10-10T04:27:00.240Z,95.79
2023-10-10T04:29:30.474Z,95.55
2023-10-10T04:32:00.994Z,95.35
2023-10-10T04:34:32.263Z,95.47
2023-10-10T04:37:02.873Z,95.76
2023-10-10T04:39:33.493Z,95.62
2023-10-10T04:42:03.927Z,95.71
2023-10-10T04:44:34.426Z,95.65
2023-10-10T04:47:04.904Z,95.54
2023-10-10T04:49:35.418Z,95.61
2023-10-10T04:52:05.780Z,95.42
2023-10-10T04:54:38.390Z,95.22
2023-10-10T04:57:09.281Z,94.99
2023-10-10T04:59:43.936Z,94.65
2023-10-10T05:02:14.527Z,94.33
2023-10-10T05:04:45.011Z,94.13
2023-10-10T05:07:15.595Z,94.02
2023-10-10T05:09:46.139Z,93.70
2023-10-10T05:12:16.539Z,93.96
2023-10-10T05:14:47.307Z,94.02
2023-10-10T05:17:18.196Z,94.02
2023-10-10T05:19:48.905Z,94.26
2023-10-10T05:22:19.570Z,93.98
2023-10-10T05:24:51.438Z,94.16
2023-10-10T05:27:19.262Z,93.62
2023-10-10T05:29:49.077Z,93.63
2023-10-10T05:32:16.526Z,93.64
2023-10-10T05:34:43.914Z,93.19
2023-10-10T05:37:11.345Z,93.18
2023-10-10T05:39:42.700Z,93.42
2023-10-10T05:42:10.315Z,93.36
2023-10-10T05:44:40.573Z,93.14
2023-10-10T05:47:08.147Z,92.93
2023-10-10T05:52:03.636Z,93.06
2023-10-10T05:54:31.419Z,93.09
2023-10-10T05:57:01.802Z,93.13
2023-10-10T05:59:30.276Z,92.93
2023-10-10T06:01:57.870Z,93.12
2023-10-10T06:04:25.277Z,93.33
2023-10-10T06:06:53.829Z,93.17
2023-10-10T06:09:21.504Z,92.95
2023-10-10T06:11:51.385Z,92.57
2023-10-10T06:14:21.677Z,92.06
2023-10-10T06:16:49.035Z,91.81
2023-10-10T06:19:22.839Z,91.22
2023-10-10T06:21:53.721Z,90.78
2023-10-10T06:24:21.200Z,91.14
2023-10-10T06:26:51.115Z,91.05
2023-10-10T06:29:18.612Z,90.85
2023-10-10T06:31:50.755Z,90.60
2023-10-10T06:34:21.977Z,90.47
2023-10-10T06:36:49.678Z,90.28
2023-10-10T06:39:17.989Z,90.42
2023-10-10T06:41:49.005Z,89.80
2023-10-10T06:44:19.490Z,89.74
2023-10-10T06:46:50.268Z,89.41
2023-10-10T06:49:19.930Z,88.97
2023-10-10T06:51:48.315Z,88.47
2023-10-10T06:54:18.944Z,88.09
2023-10-10T06:56:46.747Z,88.43
2023-10-10T06:59:17.827Z,88.04
2023-10-10T07:01:47.655Z,87.55
2023-10-10T07:04:16.294Z,87.39
2023-10-10T07:06:46.639Z,87.15
2023-10-10T07:09:16.794Z,86.77
2023-10-10T07:11:44.543Z,86.59
2023-10-10T07:14:28.715Z,86.24
2023-10-10T07:16:58.654Z,86.18
2023-10-10T07:19:32.064Z,86.29
2023-10-10T07:22:05.194Z,85.69
2023-10-10T07:24:42.374Z,85.69
2023-10-10T07:27:42.055Z,85.61
2023-10-10T07:30:18.375Z,85.19
2023-10-10T07:32:55.966Z,85.47
2023-10-10T07:35:29.716Z,85.50
2023-10-10T07:38:01.238Z,85.66
2023-10-10T07:40:32.505Z,86.03
2023-10-10T07:43:05.161Z,86.34
2023-10-10T07:45:45.624Z,86.93
2023-10-10T07:48:21.010Z,87.49
2023-10-10T07:51:03.875Z,87.91
2023-10-10T07:53:35.935Z,87.91
2023-10-10T07:56:05.717Z,87.40
2023-10-10T07:58:51.232Z,86.76
2023-10-10T08:01:20.048Z,85.92
2023-10-10T08:03:48.838Z,84.68
2023-10-10T08:08:46.173Z,84.63
2023-10-10T08:11:14.989Z,85.20
2023-10-10T08:13:50.181Z,85.97
2023-10-10T08:16:22.566Z,86.53
2023-10-10T08:21:18.263Z,88.15
2023-10-10T08:23:46.087Z,87.64
2023-10-10T08:26:19.852Z,87.49
2023-10-10T08:28:49.060Z,87.93
2023-10-10T08:31:17.468Z,88.46
2023-10-10T08:33:48.381Z,88.11
2023-10-10T08:36:21.636Z,88.68
2023-10-10T08:38:48.898Z,88.74
2023-10-10T08:41:21.636Z,88.28
2023-10-10T08:46:28.761Z,87.80
2023-10-10T08:48:57.652Z,88.49
2023-10-10T08:53:55.054Z,88.97
2023-10-10T08:56:22.518Z,89.30
2023-10-10T08:58:52.475Z,89.27
2023-10-10T09:01:34.739Z,88.77
2023-10-10T09:04:06.125Z,88.56
2023-10-10T09:06:58.525Z,88.02
2023-10-10T09:09:36.384Z,87.51
2023-10-10T09:12:05.325Z,87.81
2023-10-10T09:14:51.715Z,87.91
2023-10-10T09:17:40.181Z,87.38
2023-10-10T09:20:19.480Z,86.76
2023-10-10T09:22:53.392Z,86.20
2023-10-10T09:25:23.972Z,86.39
2023-10-10T09:28:01.371Z,85.94
2023-10-10T09:30:36.176Z,84.44
2023-10-10T09:33:23.514Z,83.77
2023-10-10T09:36:09.973Z,83.72
2023-10-10T09:38:39.195Z,83.07
2023-10-10T09:41:15.749Z,83.33
2023-10-10T09:44:16.730Z,83.38
2023-10-10T09:47:03.347Z,82.21
2023-10-10T09:49:38.716Z,82.54
2023-10-10T09:52:24.513Z,82.89
2023-10-10T09:54:56.767Z,83.20
2023-10-10T09:57:28.322Z,82.34
2023-10-10T10:00:03.911Z,83.02
2023-10-10T10:02:42.330Z,82.18
2023-10-10T10:05:30.817Z,81.24
2023-10-10T10:08:23.291Z,81.93
2023-10-10T10:10:57.340Z,81.18
2023-10-10T10:13:39.788Z,80.51
2023-10-10T10:16:45.919Z,79.86
2023-10-10T10:19:19.116Z,80.16
2023-10-10T10:21:58.060Z,78.45
2023-10-10T10:24:32.461Z,78.15
2023-10-10T10:27:35.607Z,79.16
2023-10-10T10:30:20.125Z,78.70
2023-10-10T10:32:48.633Z,77.46
2023-10-10T10:36:07.710Z,77.59
2023-10-10T10:38:40.945Z,78.71
2023-10-10T10:41:19.109Z,79.97
2023-10-10T10:43:52.540Z,78.46
2023-10-10T10:46:29.556Z,77.46
2023-10-10T10:49:07.333Z,76.60
2023-10-10T10:51:43.075Z,77.61
2023-10-10T10:54:10.765Z,76.78
2023-10-10T10:56:37.753Z,76.22
2023-10-10T10:59:17.290Z,76.22
2023-10-10T11:01:53.948Z,75.99
2023-10-10T11:04:41.211Z,75.28
2023-10-10T11:07:16.938Z,74.95
2023-10-10T11:09:54.672Z,75.21
2023-10-10T11:12:34.286Z,74.58
2023-10-10T11:15:10.439Z,74.45
2023-10-10T11:17:41.587Z,74.43
2023-10-10T11:20:31.059Z,73.47
2023-10-10T11:23:13.025Z,72.49
2023-10-10T11:25:48.114Z,71.95
2023-10-10T11:28:26.133Z,71.86
2023-10-10T11:30:55.310Z,72.19
2023-10-10T11:33:49.918Z,70.79
2023-10-10T11:36:31.178Z,69.42
2023-10-10T11:39:16.546Z,68.95
2023-10-10T11:41:43.746Z,68.55
2023-10-10T11:44:10.653Z,69.08
2023-10-10T11:46:40.376Z,69.03
2023-10-10T11:49:16.611Z,69.34
2023-10-10T11:51:44.193Z,69.46
2023-10-10T11:54:11.194Z,70.33
2023-10-10T11:56:41.240Z,70.17
2023-10-10T11:59:15.730Z,69.93
2023-10-10T12:01:55.883Z,69.77
2023-10-10T12:04:32.925Z,70.10
2023-10-10T12:07:06.073Z,68.66
2023-10-10T12:09:34.546Z,68.57
2023-10-10T12:12:04.984Z,69.19
2023-10-10T12:14:32.811Z,68.82
2023-10-10T12:17:00.528Z,68.23
2023-10-10T12:19:37.610Z,68.50
2023-10-10T12:22:23.625Z,69.06
2023-10-10T12:24:52.104Z,68.79
2023-10-10T12:27:19.203Z,68.24
2023-10-10T12:29:49.580Z,67.97
2023-10-10T12:32:28.592Z,65.66
2023-10-10T12:34:55.710Z,67.07
2023-10-10T12:37:24.888Z,66.16
2023-10-10T12:39:53.879Z,66.57
2023-10-10T12:42:25.943Z,66.37
2023-10-10T12:44:53.006Z,66.44
2023-10-10T12:47:21.236Z,66.47
2023-10-10T12:49:48.399Z,66.64
2023-10-10T12:52:34.081Z,67.29
2023-10-10T12:55:01.120Z,67.96
2023-10-10T12:57:34.544Z,67.55
2023-10-10T13:00:21.727Z,67.57
2023-10-10T13:02:49.263Z,67.29
2023-10-10T13:05:18.149Z,66.95
2023-10-10T13:07:45.264Z,67.37
2023-10-10T13:10:12.241Z,67.81
2023-10-10T13:12:39.218Z,67.71
2023-10-10T13:15:18.021Z,67.59
2023-10-10T13:17:55.241Z,68.11
2023-10-10T13:20:23.472Z,68.40
2023-10-10T13:22:52.094Z,68.30
2023-10-10T13:25:20.667Z,68.26
2023-10-10T13:27:47.957Z,68.79
2023-10-10T13:30:15.468Z,68.95
2023-10-10T13:32:44.080Z,68.44
2023-10-10T13:35:11.682Z,68.74
2023-10-10T13:37:42.854Z,69.54
2023-10-10T13:40:11.412Z,69.97
2023-10-10T13:42:41.977Z,70.30
2023-10-10T13:45:13.541Z,69.99
2023-10-10T13:47:42.207Z,69.63
2023-10-10T13:50:29.919Z,70.46
2023-10-10T13:52:56.999Z,70.55
2023-10-10T13:55:24.700Z,70.97
2023-10-10T13:57:51.572Z,70.51
2023-10-10T14:00:31.240Z,70.56
2023-10-10T14:03:05.507Z,71.89
2023-10-10T14:05:43.084Z,71.59
2023-10-10T14:08:11.738Z,71.76
2023-10-10T14:10:40.584Z,71.89
2023-10-10T14:13:20.635Z,71.74
2023-10-10T14:15:56.185Z,71.86
2023-10-10T14:18:33.539Z,71.93
2023-10-10T14:21:09.777Z,72.65
2023-10-10T14:23:37.375Z,72.94
2023-10-10T14:26:20.236Z,73.21
2023-10-10T14:28:52.172Z,73.08
2023-10-10T14:31:23.902Z,73.70
2023-10-10T14:34:01.252Z,72.63
2023-10-10T14:36:32.390Z,72.08
2023-10-10T14:39:01.662Z,73.12
2023-10-10T14:41:31.756Z,73.57
2023-10-10T14:44:02.041Z,73.73
2023-10-10T14:46:33.732Z,74.22
2023-10-10T14:49:18.795Z,71.98
2023-10-10T14:51:51.784Z,72.90
2023-10-10T14:54:19.346Z,73.13
2023-10-10T14:56:53.204Z,73.55
2023-10-10T14:59:33.277Z,72.35
2023-10-10T15:02:01.699Z,72.58
2023-10-10T15:04:32.088Z,72.57
2023-10-10T15:07:00.215Z,72.72
2023-10-10T15:09:27.382Z,73.29
2023-10-10T15:12:03.321Z,73.04
2023-10-10T15:14:33.899Z,73.93
2023-10-10T15:17:02.353Z,73.55
2023-10-10T15:19:29.438Z,74.08
2023-10-10T15:21:57.808Z,74.46
2023-10-10T15:24:25.375Z,74.67
2023-10-10T15:26:53.203Z,75.28
2023-10-10T15:29:22.827Z,75.05
2023-10-10T15:31:52.112Z,75.13
2023-10-10T15:34:19.634Z,75.11
2023-10-10T15:36:47.549Z,75.66
2023-10-10T15:39:16.115Z,77.47
2023-10-10T15:41:44.680Z,76.17
2023-10-10T15:44:14.214Z,76.47
2023-10-10T15:46:43.958Z,76.19
2023-10-10T15:49:21.128Z,76.23
2023-10-10T15:51:54.240Z,76.41
2023-10-10T15:54:21.746Z,76.36
2023-10-10T15:56:48.783Z,76.93
2023-10-10T15:59:18.895Z,77.56
2023-10-10T16:01:48.466Z,77.80
2023-10-10T16:04:15.577Z,78.15
2023-10-10T16:06:44.008Z,78.24
2023-10-10T16:09:13.055Z,77.86
2023-10-10T16:11:41.888Z,78.46
2023-10-10T16:14:15.684Z,80.33
2023-10-10T16:16:45.662Z,79.84
2023-10-10T16:19:22.746Z,79.31
2023-10-10T16:21:50.771Z,79.20
2023-10-10T16:24:18.215Z,79.30
2023-10-10T16:26:46.977Z,79.77
2023-10-10T16:29:16.802Z,79.56
2023-10-10T16:31:45.281Z,79.72
2023-10-10T16:34:13.405Z,79.47
2023-10-10T16:36:40.634Z,79.71
2023-10-10T16:39:12.406Z,80.32
2023-10-10T16:41:39.683Z,79.98
2023-10-10T16:44:07.044Z,80.46
2023-10-10T16:46:34.122Z,80.81
2023-10-10T16:49:01.157Z,81.11
2023-10-10T16:51:28.681Z,81.47
2023-10-10T16:53:56.841Z,81.15
2023-10-10T16:56:23.973Z,81.01
2023-10-10T16:58:51.470Z,81.21
2023-10-10T17:01:22.190Z,81.22
2023-10-10T17:03:51.640Z,81.46
2023-10-10T17:06:24.265Z,81.82
2023-10-10T17:08:54.590Z,81.72
2023-10-10T17:11:22.824Z,81.91
2023-10-10T17:13:51.500Z,81.91
2023-10-10T17:16:30.272Z,81.43
2023-10-10T17:19:14.632Z,81.96
2023-10-10T17:21:47.890Z,82.07
2023-10-10T17:24:20.293Z,83.30
2023-10-10T17:26:47.495Z,82.93
2023-10-10T17:29:14.566Z,82.94
2023-10-10T17:31:41.623Z,82.23
2023-10-10T17:34:08.937Z,82.94
2023-10-10T17:36:41.543Z,82.63
2023-10-10T17:39:10.596Z,83.25
2023-10-10T17:41:37.651Z,83.28
2023-10-10T17:44:10.960Z,83.59
2023-10-10T17:46:38.611Z,83.62
2023-10-10T17:49:06.700Z,83.48
2023-10-10T17:51:35.466Z,83.69
2023-10-10T17:54:03.945Z,84.41
2023-10-10T17:56:33.101Z,84.77
2023-10-10T17:59:01.806Z,85.31
2023-10-10T18:01:30.431Z,84.40
2023-10-10T18:03:57.707Z,84.33
2023-10-10T18:06:27.787Z,84.51
2023-10-10T18:08:57.171Z,84.39
2023-10-10T18:11:27.700Z,84.99
2023-10-10T18:13:54.870Z,85.00
2023-10-10T18:16:23.099Z,85.69
2023-10-10T18:18:51.725Z,87.09
2023-10-10T18:21:21.151Z,86.40
2023-10-10T18:23:48.614Z,86.04
2023-10-10T18:26:18.068Z,85.96
2023-10-10T18:28:45.424Z,86.30
2023-10-10T18:31:24.142Z,86.40
2023-10-10T18:33:53.524Z,85.79
2023-10-10T18:36:21.729Z,86.26
2023-10-10T18:38:49.761Z,86.29
2023-10-10T18:41:24.626Z,86.32
2023-10-10T18:43:52.473Z,86.52
2023-10-10T18:46:19.755Z,86.36
2023-10-10T18:48:47.200Z,87.11
2023-10-10T18:51:15.619Z,87.70
2023-10-10T18:53:43.937Z,86.66
2023-10-10T18:56:10.995Z,86.41
2023-10-10T18:58:40.181Z,86.39
2023-10-10T19:01:11.495Z,86.94
2023-10-10T19:03:48.473Z,87.23
2023-10-10T19:06:16.785Z,88.54
2023-10-10T19:08:46.566Z,88.33
2023-10-10T19:11:25.074Z,87.31
2023-10-10T19:13:52.107Z,87.34
2023-10-10T19:16:19.616Z,86.26
2023-10-10T19:18:47.334Z,86.69
2023-10-10T19:21:19.056Z,86.56
2023-10-10T19:23:51.606Z,87.00
2023-10-10T19:26:20.178Z,86.92
2023-10-10T19:28:54.864Z,87.43
2023-10-10T19:31:23.432Z,87.10
2023-10-10T19:33:50.653Z,87.98
2023-10-10T19:36:17.840Z,87.95
2023-10-10T19:38:44.853Z,87.78
2023-10-10T19:41:15.665Z,88.01
2023-10-10T19:43:42.834Z,87.65
2023-10-10T19:46:12.814Z,88.60
2023-10-10T19:48:43.818Z,88.28
2023-10-10T19:51:18.664Z,88.29
2023-10-10T19:53:47.050Z,88.11
2023-10-10T19:56:14.053Z,87.91
2023-10-10T19:58:43.283Z,88.16
2023-10-10T20:01:10.547Z,88.68
2023-10-10T20:03:37.860Z,88.67
2023-10-10T20:06:08.347Z,88.87
2023-10-10T20:08:36.237Z,88.92
2023-10-10T20:11:05.017Z,88.97
2023-10-10T20:13:32.035Z,89.20
2023-10-10T20:15:58.959Z,89.29
2023-10-10T20:18:26.636Z,88.98
2023-10-10T20:20:53.668Z,89.21
2023-10-10T20:23:22.046Z,89.28
2023-10-10T20:25:52.617Z,88.97
2023-10-10T20:28:19.711Z,88.55
2023-10-10T20:30:47.175Z,88.77
2023-10-10T20:33:17.902Z,88.80
2023-10-10T20:35:46.606Z,89.00
2023-10-10T20:38:16.115Z,89.25
2023-10-10T20:40:44.744Z,89.83
2023-10-10T20:43:14.776Z,90.30
2023-10-10T20:45:41.959Z,90.50
2023-10-10T20:48:17.105Z,90.35
2023-10-10T20:50:45.730Z,92.05
2023-10-10T20:53:13.605Z,91.23
2023-10-10T20:55:42.906Z,90.43
2023-10-10T20:58:12.335Z,91.02
2023-10-10T21:00:40.075Z,91.24
2023-10-10T21:03:10.886Z,90.39
2023-10-10T21:05:45.928Z,91.79
2023-10-10T21:08:14.934Z,91.27
2023-10-10T21:10:42.092Z,91.36
2023-10-10T21:13:09.775Z,91.29
2023-10-10T21:15:37.048Z,92.05
2023-10-10T21:18:09.732Z,91.75
2023-10-10T21:20:56.408Z,91.07
2023-10-10T21:23:28.595Z,91.37
2023-10-10T21:25:55.637Z,91.69
2023-10-10T21:28:23.335Z,92.17
2023-10-10T21:30:50.505Z,91.57
2023-10-10T21:33:17.775Z,92.30
2023-10-10T21:35:45.858Z,94.87
2023-10-10T21:38:12.851Z,93.68
2023-10-10T21:40:41.504Z,93.36
2023-10-10T21:43:08.740Z,93.02
2023-10-10T21:45:40.469Z,93.06
2023-10-10T21:48:11.669Z,93.08
2023-10-10T21:50:42.196Z,93.10
2023-10-10T21:53:09.504Z,93.89
2023-10-10T21:55:38.755Z,94.34
2023-10-10T21:58:06.634Z,93.63
2023-10-10T22:00:33.934Z,93.91
2023-10-10T22:03:06.247Z,93.70
2023-10-10T22:05:34.503Z,93.87
2023-10-10T22:08:05.848Z,93.94
2023-10-10T22:10:34.495Z,93.54
2023-10-10T22:13:02.773Z,93.71
2023-10-10T22:15:30.150Z,93.38
2023-10-10T22:17:58.024Z,93.44
2023-10-10T22:20:29.223Z,93.96
2023-10-10T22:22:56.236Z,93.59
2023-10-10T22:25:23.798Z,94.26
2023-10-10T22:27:53.869Z,94.74
2023-10-10T22:30:28.305Z,94.30
2023-10-10T22:32:59.871Z,94.03
2023-10-10T22:35:28.977Z,93.96
2023-10-10T22:37:59.295Z,94.04
2023-10-10T22:40:27.123Z,94.05
2023-10-10T22:43:03.181Z,94.81
2023-10-10T22:45:34.617Z,93.92
2023-10-10T22:48:03.294Z,93.99
2023-10-10T22:50:33.772Z,93.78
2023-10-10T22:53:03.292Z,93.08
2023-10-10T22:55:35.151Z,93.92
2023-10-10T22:58:08.907Z,93.96
2023-10-10T23:00:40.026Z,94.75
2023-10-10T23:03:12.410Z,94.30
2023-10-10T23:05:44.421Z,94.04
2023-10-10T23:08:12.546Z,94.17
2023-10-10T23:10:41.263Z,94.32
2023-10-10T23:13:08.811Z,93.82
2023-10-10T23:15:39.016Z,94.51
2023-10-10T23:18:14.928Z,94.42
2023-10-10T23:20:43.006Z,93.74
2023-10-10T23:23:12.072Z,94.06
2023-10-10T23:25:39.531Z,93.78
2023-10-10T23:28:10.067Z,93.30
2023-10-10T23:30:40.742Z,94.49
2023-10-10T23:33:17.774Z,94.85
2023-10-10T23:35:50.041Z,94.23
2023-10-10T23:38:17.634Z,93.56
2023-10-10T23:40:51.677Z,93.96
2023-10-10T23:43:22.787Z,94.40
2023-10-10T23:45:58.656Z,95.30
2023-10-10T23:48:32.334Z,94.86
2023-10-10T23:51:00.797Z,93.99
2023-10-10T23:53:28.094Z,93.90
2023-10-10T23:56:00.841Z,94.40
2023-10-10T23:58:29.152Z,94.86
